createdAt,value
2022-09-12T00:00:00.407Z,1010.418
2022-09-12T00:05:02.833Z,1010.347
2022-09-12T00:10:05.474Z,1010.291
2022-09-12T00:15:08.101Z,1010.294
2022-09-12T00:20:10.754Z,1010.321
2022-09-12T00:25:13.449Z,1010.268
2022-09-12T00:30:16.078Z,1010.304
2022-09-12T00:35:18.749Z,1010.353
2022-09-12T00:40:21.260Z,1010.335
2022-09-12T00:45:24.060Z,1010.34
2022-09-12T00:50:26.658Z,1010.322
2022-09-12T00:55:29.204Z,1010.266
2022-09-12T01:00:31.839Z,1010.267
2022-09-12T01:05:34.442Z,1010.3
2022-09-12T01:10:37.231Z,1010.253
2022-09-12T01:15:39.904Z,1010.21
2022-09-12T01:20:42.532Z,1010.235
2022-09-12T01:25:45.239Z,1010.27
2022-09-12T01:30:48.089Z,1010.253
2022-09-12T01:35:50.711Z,1010.257
2022-09-12T01:40:53.622Z,1010.277
2022-09-12T01:45:56.220Z,1010.18
2022-09-12T01:50:58.867Z,1010.119
2022-09-12T01:56:01.480Z,1010.131
2022-09-12T02:01:04.142Z,1010.12
2022-09-12T02:06:06.710Z,1010.158
2022-09-12T02:11:09.281Z,1010.167
2022-09-12T02:16:11.979Z,1010.166
2022-09-12T02:21:14.475Z,1010.199
2022-09-12T02:26:17.292Z,1010.156
2022-09-12T02:31:19.851Z,1010.13
2022-09-12T02:36:22.543Z,1010.123
2022-09-12T02:41:25.201Z,1010.12
2022-09-12T02:46:27.599Z,1010.067
2022-09-12T02:51:30.385Z,1010.15
2022-09-12T02:56:33.057Z,1010.16
2022-09-12T03:01:35.674Z,1010.207
2022-09-12T03:06:38.359Z,1010.209
2022-09-12T03:11:40.995Z,1010.201
2022-09-12T03:16:43.657Z,1010.145
2022-09-12T03:21:46.218Z,1010.156
2022-09-12T03:26:49.002Z,1010.157
2022-09-12T03:31:51.709Z,1010.133
2022-09-12T03:36:54.481Z,1010.216
2022-09-12T03:41:57.083Z,1010.188
2022-09-12T03:47:02.647Z,1010.196
2022-09-12T03:52:05.140Z,1010.254
2022-09-12T03:57:08.237Z,1010.294
2022-09-12T04:07:13.251Z,1010.39
2022-09-12T04:12:15.747Z,1010.293
2022-09-12T04:17:18.432Z,1010.283
2022-09-12T04:27:23.614Z,1010.251
2022-09-12T04:32:26.252Z,1010.287
2022-09-12T04:37:31.905Z,1010.313
2022-09-12T04:42:37.569Z,1010.293
2022-09-12T04:47:40.381Z,1010.283
2022-09-12T04:52:43.041Z,1010.268
2022-09-12T04:57:45.793Z,1010.272
2022-09-12T05:07:53.720Z,1010.276
2022-09-12T05:12:56.633Z,1010.289
2022-09-12T05:17:59.505Z,1010.291
2022-09-12T05:28:04.869Z,1010.33
2022-09-12T05:33:07.621Z,1010.362
2022-09-12T05:38:10.448Z,1010.343
2022-09-12T05:43:13.260Z,1010.403
2022-09-12T05:48:16.060Z,1010.425
2022-09-12T05:53:24.922Z,1010.422
2022-09-12T05:58:27.771Z,1010.492
2022-09-12T06:03:31.021Z,1010.572
2022-09-12T06:08:33.851Z,1010.599
2022-09-12T06:13:36.691Z,1010.68
2022-09-12T06:18:42.372Z,1010.713
2022-09-12T06:23:45.126Z,1010.75
2022-09-12T06:28:48.093Z,1010.801
2022-09-12T06:33:50.625Z,1010.826
2022-09-12T06:38:53.414Z,1010.772
2022-09-12T06:54:01.769Z,1010.807
2022-09-12T06:59:04.460Z,1010.728
2022-09-12T07:09:14.862Z,1010.681
2022-09-12T07:14:17.653Z,1010.621
2022-09-12T07:19:20.501Z,1010.622
2022-09-12T07:24:23.536Z,1010.666
2022-09-12T07:29:36.359Z,1010.663
2022-09-12T07:34:28.831Z,1010.758
2022-09-12T07:39:31.670Z,1010.722
2022-09-12T07:44:34.376Z,1010.731
2022-09-12T07:49:39.930Z,1010.679
2022-09-12T07:54:42.897Z,1010.753
2022-09-12T08:05:16.399Z,1010.803
2022-09-12T08:10:19.240Z,1010.826
2022-09-12T08:15:21.636Z,1010.924
2022-09-12T08:25:26.901Z,1010.883
2022-09-12T08:35:32.065Z,1010.884
2022-09-12T08:40:34.915Z,1010.832
2022-09-12T08:45:37.671Z,1010.888
2022-09-12T08:50:58.488Z,1010.767
2022-09-12T08:56:01.874Z,1010.779
2022-09-12T09:01:04.273Z,1010.843
2022-09-12T09:06:06.917Z,1010.811
2022-09-12T09:11:09.557Z,1010.815
2022-09-12T09:16:12.199Z,1010.734
2022-09-12T09:21:14.951Z,1010.765
2022-09-12T09:26:17.950Z,1010.756
2022-09-12T09:31:21.023Z,1010.64
2022-09-12T09:41:28.965Z,1010.778
2022-09-12T09:46:31.379Z,1010.737
2022-09-12T09:51:34.096Z,1010.604
2022-09-12T09:56:37.030Z,1010.599
2022-09-12T10:01:39.784Z,1010.649
2022-09-12T10:06:44.878Z,1010.561
2022-09-12T10:11:47.620Z,1010.513
2022-09-12T10:16:50.130Z,1010.515
2022-09-12T10:21:52.618Z,1010.458
2022-09-12T10:26:56.879Z,1010.434
2022-09-12T10:31:58.223Z,1010.445
2022-09-12T10:37:00.904Z,1010.427
2022-09-12T10:42:03.596Z,1010.423
2022-09-12T10:52:11.889Z,1010.362
2022-09-12T10:57:14.691Z,1010.384
2022-09-12T11:02:17.554Z,1010.36
2022-09-12T11:07:20.092Z,1010.344
2022-09-12T11:12:22.634Z,1010.35
2022-09-12T11:22:31.678Z,1010.344
2022-09-12T11:37:36.921Z,1010.249
2022-09-12T11:42:39.990Z,1010.149
2022-09-12T11:47:43.614Z,1010.119
2022-09-12T11:53:35.009Z,1010.084
2022-09-12T11:58:43.827Z,1010.037
2022-09-12T12:03:46.672Z,1010.053
2022-09-12T12:08:49.220Z,1010.062
2022-09-12T12:13:51.629Z,1009.968
2022-09-12T12:18:54.495Z,1009.959
2022-09-12T12:23:57.209Z,1009.84
2022-09-12T12:28:59.692Z,1009.891
2022-09-12T12:34:02.291Z,1009.848
2022-09-12T12:39:04.923Z,1009.777
2022-09-12T12:44:07.641Z,1009.887
2022-09-12T12:49:10.161Z,1009.875
2022-09-12T12:54:13.176Z,1009.831
2022-09-12T12:59:15.765Z,1009.819
2022-09-12T13:04:18.641Z,1009.811
2022-09-12T13:09:21.418Z,1009.766
2022-09-12T13:14:24.059Z,1009.687
2022-09-12T13:19:26.773Z,1009.638
2022-09-12T13:24:29.802Z,1009.585
2022-09-12T13:29:32.385Z,1009.548
2022-09-12T13:34:35.249Z,1009.547
2022-09-12T13:39:37.969Z,1009.431
2022-09-12T13:44:40.523Z,1009.434
2022-09-12T13:49:43.232Z,1009.359
2022-09-12T13:54:45.878Z,1009.374
2022-09-12T13:59:48.470Z,1009.334
2022-09-12T14:04:51.015Z,1009.224
2022-09-12T14:09:53.850Z,1009.234
2022-09-12T14:14:56.427Z,1009.213
2022-09-12T14:19:59.028Z,1009.228
2022-09-12T14:25:01.578Z,1009.196
2022-09-12T14:30:04.332Z,1009.203
2022-09-12T14:35:06.816Z,1009.131
2022-09-12T14:40:09.487Z,1009.101
2022-09-12T14:45:12.101Z,1009.037
2022-09-12T14:50:14.908Z,1009.052
2022-09-12T14:55:17.446Z,1009.001
2022-09-12T15:00:19.996Z,1008.969
2022-09-12T15:05:22.604Z,1008.903
2022-09-12T15:10:25.235Z,1008.859
2022-09-12T15:15:27.853Z,1008.862
2022-09-12T15:20:30.361Z,1008.844
2022-09-12T15:25:33.225Z,1008.806
2022-09-12T15:30:38.718Z,1008.799
2022-09-12T15:35:41.436Z,1008.81
2022-09-12T15:40:44.166Z,1008.703
2022-09-12T15:45:46.845Z,1008.657
2022-09-12T15:50:49.539Z,1008.669
2022-09-12T15:55:52.290Z,1008.698
2022-09-12T16:00:54.599Z,1008.657
2022-09-12T16:05:57.313Z,1008.646
2022-09-12T16:11:00.054Z,1008.549
2022-09-12T16:16:02.821Z,1008.541
2022-09-12T16:21:05.538Z,1008.524
2022-09-12T16:26:08.255Z,1008.525
2022-09-12T16:31:10.728Z,1008.46
2022-09-12T16:36:15.971Z,1008.408
2022-09-12T16:46:21.333Z,1008.321
2022-09-12T16:51:24.033Z,1008.305
2022-09-12T17:02:25.276Z,1008.173
2022-09-12T17:07:27.614Z,1008.082
2022-09-12T17:12:30.336Z,1008.105
2022-09-12T17:17:32.779Z,1008.028
2022-09-12T17:22:35.358Z,1007.946
2022-09-12T17:27:38.133Z,1007.968
2022-09-12T17:32:40.943Z,1007.947
2022-09-12T17:37:43.450Z,1007.968
2022-09-12T17:42:46.088Z,1007.942
2022-09-12T17:47:48.741Z,1008.007
2022-09-12T17:52:51.312Z,1008.005
2022-09-12T17:57:53.962Z,1008.05
2022-09-12T18:02:56.920Z,1008.078
2022-09-12T18:07:59.500Z,1008.084
2022-09-12T18:13:02.107Z,1008.126
2022-09-12T18:18:04.885Z,1008.005
2022-09-12T18:23:07.427Z,1008.002
2022-09-12T18:28:10.192Z,1007.929
2022-09-12T18:33:12.928Z,1007.93
2022-09-12T18:38:15.566Z,1007.898
2022-09-12T18:43:18.281Z,1007.945
2022-09-12T18:48:21.087Z,1007.922
2022-09-12T18:53:23.672Z,1007.871
2022-09-12T18:58:26.395Z,1007.827
2022-09-12T19:03:29.283Z,1007.742
2022-09-12T19:08:31.677Z,1007.66
2022-09-12T19:13:34.281Z,1007.595
2022-09-12T19:18:37.177Z,1007.592
2022-09-12T19:23:39.966Z,1007.622
2022-09-12T19:28:42.525Z,1007.521
2022-09-12T19:33:45.366Z,1007.523
2022-09-12T19:38:47.884Z,1007.483
2022-09-12T19:43:50.460Z,1007.48
2022-09-12T19:48:53.131Z,1007.48
2022-09-12T19:53:55.674Z,1007.455
2022-09-12T19:58:58.541Z,1007.44
2022-09-12T20:04:01.355Z,1007.366
2022-09-12T20:09:06.555Z,1007.324
2022-09-12T20:14:09.292Z,1007.264
2022-09-12T20:19:14.825Z,1007.234
2022-09-12T20:24:17.255Z,1007.231
2022-09-12T20:29:19.919Z,1007.288
2022-09-12T20:34:22.791Z,1007.188
2022-09-12T20:39:25.139Z,1007.185
2022-09-12T20:44:27.700Z,1007.133
2022-09-12T20:54:32.972Z,1007.102
2022-09-12T21:04:38.398Z,1007.044
2022-09-12T21:09:40.837Z,1007.073
2022-09-12T21:14:43.549Z,1007.049
2022-09-12T21:19:49.028Z,1007.034
2022-09-12T21:24:52.315Z,1006.988
2022-09-12T21:34:57.269Z,1006.932
2022-09-12T21:39:59.751Z,1006.852
2022-09-12T21:45:02.301Z,1006.892
2022-09-12T21:56:03.189Z,1006.742
2022-09-12T22:01:14.596Z,1006.651
2022-09-12T22:06:20.665Z,1006.656
2022-09-12T22:16:22.752Z,1006.506
2022-09-12T22:21:25.321Z,1006.369
2022-09-12T22:31:30.813Z,1006.301
2022-09-12T22:36:35.920Z,1006.295
2022-09-12T22:41:35.985Z,1006.154
2022-09-12T22:46:38.648Z,1006.068
2022-09-12T22:51:41.291Z,1005.969
2022-09-12T22:56:43.933Z,1005.914
2022-09-12T23:01:46.549Z,1005.802
2022-09-12T23:06:49.221Z,1005.757
2022-09-12T23:11:52.022Z,1005.721
2022-09-12T23:16:54.774Z,1005.694
2022-09-12T23:26:59.986Z,1005.742
2022-09-12T23:37:08.181Z,1005.649
2022-09-12T23:47:13.350Z,1005.613
2022-09-12T23:52:15.846Z,1005.508
2022-09-12T23:57:18.432Z,1005.498
